createdAt,value
2023-05-22T00:00:08.597Z,100.00
2023-05-22T00:02:43.164Z,100.00
2023-05-22T00:05:15.095Z,100.00
2023-05-22T00:07:43.287Z,100.00
2023-05-22T00:10:11.243Z,100.00
2023-05-22T00:12:38.599Z,100.00
2023-05-22T00:15:06.864Z,100.00
2023-05-22T00:17:34.493Z,100.00
2023-05-22T00:20:04.481Z,100.00
2023-05-22T00:22:35.398Z,100.00
2023-05-22T00:25:07.566Z,100.00
2023-05-22T00:27:35.011Z,100.00
2023-05-22T00:30:02.463Z,100.00
2023-05-22T00:32:29.842Z,100.00
2023-05-22T00:34:57.279Z,100.00
2023-05-22T00:37:25.527Z,100.00
2023-05-22T00:39:53.119Z,100.00
2023-05-22T00:42:21.025Z,100.00
2023-05-22T00:44:48.746Z,100.00
2023-05-22T00:47:17.057Z,100.00
2023-05-22T00:49:44.829Z,100.00
2023-05-22T00:52:14.719Z,100.00
2023-05-22T00:54:43.244Z,100.00
2023-05-22T00:57:11.120Z,100.00
2023-05-22T00:59:39.052Z,100.00
2023-05-22T01:02:06.760Z,100.00
2023-05-22T01:04:35.468Z,100.00
2023-05-22T01:07:06.051Z,100.00
2023-05-22T01:09:33.478Z,100.00
2023-05-22T01:12:34.319Z,100.00
2023-05-22T01:15:11.389Z,100.00
2023-05-22T01:17:48.501Z,100.00
2023-05-22T01:20:20.997Z,100.00
2023-05-22T01:23:19.622Z,100.00
2023-05-22T01:26:41.847Z,100.00
2023-05-22T01:29:20.928Z,100.00
2023-05-22T01:31:50.914Z,100.00
2023-05-22T01:34:20.972Z,100.00
2023-05-22T01:36:50.874Z,100.00
2023-05-22T01:39:20.329Z,100.00
2023-05-22T01:41:48.041Z,100.00
2023-05-22T01:44:15.360Z,100.00
2023-05-22T01:46:42.706Z,100.00
2023-05-22T01:49:10.443Z,100.00
2023-05-22T01:51:50.190Z,100.00
2023-05-22T01:54:34.172Z,100.00
2023-05-22T01:57:11.130Z,100.00
2023-05-22T01:59:49.662Z,100.00
2023-05-22T02:02:20.407Z,100.00
2023-05-22T02:05:08.946Z,100.00
2023-05-22T02:07:58.134Z,100.00
2023-05-22T02:10:28.166Z,100.00
2023-05-22T02:12:55.868Z,100.00
2023-05-22T02:15:24.027Z,100.00
2023-05-22T02:17:53.388Z,100.00
2023-05-22T02:20:21.333Z,100.00
2023-05-22T02:22:48.841Z,100.00
2023-05-22T02:25:17.460Z,100.00
2023-05-22T02:27:49.816Z,100.00
2023-05-22T02:30:17.660Z,100.00
2023-05-22T02:32:49.634Z,100.00
2023-05-22T02:35:17.016Z,100.00
2023-05-22T02:37:45.611Z,100.00
2023-05-22T02:40:15.631Z,100.00
2023-05-22T02:42:43.460Z,100.00
2023-05-22T02:45:11.619Z,100.00
2023-05-22T02:47:39.080Z,100.00
2023-05-22T02:50:07.916Z,100.00
2023-05-22T02:52:36.952Z,100.00
2023-05-22T02:55:04.749Z,100.00
2023-05-22T02:57:33.165Z,100.00
2023-05-22T03:00:01.773Z,100.00
2023-05-22T03:02:32.315Z,100.00
2023-05-22T03:04:59.871Z,100.00
2023-05-22T03:07:29.608Z,100.00
2023-05-22T03:09:57.776Z,100.00
2023-05-22T03:12:25.820Z,100.00
2023-05-22T03:14:53.284Z,100.00
2023-05-22T03:17:21.601Z,100.00
2023-05-22T03:19:49.544Z,100.00
2023-05-22T03:22:18.616Z,100.00
2023-05-22T03:24:46.474Z,100.00
2023-05-22T03:27:17.169Z,100.00
2023-05-22T03:29:47.693Z,100.00
2023-05-22T03:32:16.961Z,100.00
2023-05-22T03:34:44.576Z,100.00
2023-05-22T03:37:12.894Z,100.00
2023-05-22T03:39:40.440Z,100.00
2023-05-22T03:42:19.073Z,100.00
2023-05-22T03:44:46.734Z,100.00
2023-05-22T03:47:14.069Z,100.00
2023-05-22T03:49:41.446Z,100.00
2023-05-22T03:52:11.863Z,100.00
2023-05-22T03:54:39.217Z,100.00
2023-05-22T03:57:06.983Z,100.00
2023-05-22T03:59:34.293Z,100.00
2023-05-22T04:02:01.721Z,100.00
2023-05-22T04:04:29.782Z,100.00
2023-05-22T04:06:58.208Z,100.00
2023-05-22T04:09:27.705Z,100.00
2023-05-22T04:11:58.809Z,100.00
2023-05-22T04:14:26.223Z,100.00
2023-05-22T04:16:54.087Z,100.00
2023-05-22T04:19:22.437Z,100.00
2023-05-22T04:21:49.855Z,100.00
2023-05-22T04:24:18.349Z,100.00
2023-05-22T04:26:46.538Z,100.00
2023-05-22T04:29:14.465Z,100.00
2023-05-22T04:31:45.111Z,100.00
2023-05-22T04:34:15.360Z,100.00
2023-05-22T04:36:45.315Z,100.00
2023-05-22T04:39:13.922Z,100.00
2023-05-22T04:41:41.872Z,100.00
2023-05-22T04:44:09.945Z,100.00
2023-05-22T04:46:37.387Z,100.00
2023-05-22T04:49:05.406Z,100.00
2023-05-22T04:51:33.213Z,100.00
2023-05-22T04:54:19.510Z,100.00
2023-05-22T04:57:06.079Z,100.00
2023-05-22T04:59:54.837Z,100.00
2023-05-22T05:02:22.251Z,100.00
2023-05-22T05:04:50.205Z,100.00
2023-05-22T05:07:18.700Z,100.00
2023-05-22T05:09:46.205Z,100.00
2023-05-22T05:12:14.755Z,100.00
2023-05-22T05:14:42.158Z,100.00
2023-05-22T05:17:09.598Z,100.00
2023-05-22T05:19:37.457Z,100.00
2023-05-22T05:22:05.132Z,100.00
2023-05-22T05:24:33.732Z,100.00
2023-05-22T05:27:01.091Z,100.00
2023-05-22T05:29:28.450Z,100.00
2023-05-22T05:32:05.016Z,100.00
2023-05-22T05:34:39.767Z,100.00
2023-05-22T05:37:20.666Z,100.00
2023-05-22T05:39:48.740Z,100.00
2023-05-22T05:42:17.878Z,100.00
2023-05-22T05:44:46.421Z,100.00
2023-05-22T05:47:14.367Z,100.00
2023-05-22T05:49:41.941Z,100.00
2023-05-22T05:52:10.840Z,100.00
2023-05-22T05:54:38.238Z,100.00
2023-05-22T05:57:14.637Z,100.00
2023-05-22T05:59:42.140Z,100.00
2023-05-22T06:02:26.076Z,100.00
2023-05-22T06:04:57.069Z,100.00
2023-05-22T06:07:24.447Z,100.00
2023-05-22T06:09:54.418Z,100.00
2023-05-22T06:12:41.155Z,100.00
2023-05-22T06:15:13.211Z,100.00
2023-05-22T06:17:41.826Z,100.00
2023-05-22T06:20:10.261Z,100.00
2023-05-22T06:22:37.779Z,100.00
2023-05-22T06:25:06.014Z,100.00
2023-05-22T06:27:34.986Z,100.00
2023-05-22T06:30:04.634Z,100.00
2023-05-22T06:32:37.323Z,100.00
2023-05-22T06:35:05.520Z,100.00
2023-05-22T06:37:35.870Z,100.00
2023-05-22T06:40:04.937Z,100.00
2023-05-22T06:42:40.262Z,100.00
2023-05-22T06:45:30.752Z,100.00
2023-05-22T06:48:26.952Z,100.00
2023-05-22T06:51:11.711Z,100.00
2023-05-22T06:53:41.426Z,100.00
2023-05-22T06:56:18.026Z,100.00
2023-05-22T06:59:01.134Z,100.00
2023-05-22T07:01:47.210Z,100.00
2023-05-22T07:04:19.447Z,100.00
2023-05-22T07:06:58.669Z,100.00
2023-05-22T07:09:26.415Z,100.00
2023-05-22T07:11:54.726Z,100.00
2023-05-22T07:14:22.104Z,100.00
2023-05-22T07:16:49.928Z,100.00
2023-05-22T07:19:23.534Z,100.00
2023-05-22T07:21:51.558Z,100.00
2023-05-22T07:24:21.480Z,100.00
2023-05-22T07:26:50.650Z,100.00
2023-05-22T07:29:18.582Z,100.00
2023-05-22T07:31:49.258Z,100.00
2023-05-22T07:34:17.831Z,100.00
2023-05-22T07:36:46.302Z,100.00
2023-05-22T07:39:15.991Z,100.00
2023-05-22T07:41:50.121Z,100.00
2023-05-22T07:44:20.267Z,100.00
2023-05-22T07:46:47.803Z,100.00
2023-05-22T07:49:21.984Z,100.00
2023-05-22T07:51:51.437Z,100.00
2023-05-22T07:54:20.959Z,100.00
2023-05-22T07:56:52.954Z,100.00
2023-05-22T07:59:23.770Z,100.00
2023-05-22T08:01:52.112Z,100.00
2023-05-22T08:04:19.731Z,100.00
2023-05-22T08:06:48.127Z,100.00
2023-05-22T08:09:15.558Z,100.00
2023-05-22T08:11:43.176Z,100.00
2023-05-22T08:14:11.051Z,100.00
2023-05-22T08:16:38.549Z,100.00
2023-05-22T08:19:09.784Z,100.00
2023-05-22T08:21:37.505Z,100.00
2023-05-22T08:24:05.214Z,100.00
2023-05-22T08:26:33.859Z,100.00
2023-05-22T08:29:01.206Z,100.00
2023-05-22T08:31:29.354Z,100.00
2023-05-22T08:34:03.173Z,100.00
2023-05-22T08:36:35.461Z,100.00
2023-05-22T08:39:03.399Z,100.00
2023-05-22T08:41:30.770Z,100.00
2023-05-22T08:43:58.950Z,100.00
2023-05-22T08:46:28.302Z,100.00
2023-05-22T08:48:58.129Z,100.00
2023-05-22T08:51:31.428Z,100.00
2023-05-22T08:54:01.202Z,100.00
2023-05-22T08:56:31.021Z,100.00
2023-05-22T08:59:00.829Z,100.00
2023-05-22T09:01:32.744Z,100.00
2023-05-22T09:04:02.417Z,100.00
2023-05-22T09:06:30.660Z,100.00
2023-05-22T09:08:59.624Z,100.00
2023-05-22T09:11:27.506Z,100.00
2023-05-22T09:14:08.380Z,100.00
2023-05-22T09:16:47.406Z,100.00
2023-05-22T09:19:15.924Z,100.00
2023-05-22T09:21:45.794Z,100.00
2023-05-22T09:24:13.383Z,100.00
2023-05-22T09:26:41.330Z,100.00
2023-05-22T09:29:09.481Z,100.00
2023-05-22T09:31:44.206Z,100.00
2023-05-22T09:34:17.544Z,100.00
2023-05-22T09:36:45.162Z,100.00
2023-05-22T09:39:12.918Z,100.00
2023-05-22T09:41:40.507Z,100.00
2023-05-22T09:44:13.812Z,100.00
2023-05-22T09:46:44.486Z,100.00
2023-05-22T09:49:15.740Z,100.00
2023-05-22T09:51:47.908Z,100.00
2023-05-22T09:54:17.637Z,100.00
2023-05-22T09:56:50.522Z,100.00
2023-05-22T09:59:22.370Z,100.00
2023-05-22T10:01:50.879Z,100.00
2023-05-22T10:04:21.959Z,100.00
2023-05-22T10:06:54.209Z,100.00
2023-05-22T10:09:26.057Z,100.00
2023-05-22T10:11:57.019Z,100.00
2023-05-22T10:14:26.961Z,100.00
2023-05-22T10:16:56.885Z,100.00
2023-05-22T10:19:27.335Z,100.00
2023-05-22T10:21:57.552Z,100.00
2023-05-22T10:24:25.702Z,100.00
2023-05-22T10:26:54.295Z,100.00
2023-05-22T10:29:33.647Z,100.00
2023-05-22T10:32:13.870Z,100.00
2023-05-22T10:35:02.059Z,100.00
2023-05-22T10:37:41.821Z,100.00
2023-05-22T10:40:12.611Z,100.00
2023-05-22T10:42:40.367Z,100.00
2023-05-22T10:45:08.580Z,100.00
2023-05-22T10:47:36.732Z,100.00
2023-05-22T10:50:09.837Z,100.00
2023-05-22T10:52:38.827Z,100.00
2023-05-22T10:55:08.512Z,100.00
2023-05-22T10:57:38.423Z,100.00
2023-05-22T11:00:15.033Z,96.06
2023-05-22T11:02:46.249Z,96.33
2023-05-22T11:05:34.517Z,88.90
2023-05-22T11:08:26.644Z,90.36
2023-05-22T11:10:59.305Z,87.06
2023-05-22T11:13:29.475Z,87.47
2023-05-22T11:15:58.256Z,84.48
2023-05-22T11:18:28.817Z,84.74
2023-05-22T11:20:59.190Z,85.78
2023-05-22T11:23:26.918Z,84.51
2023-05-22T11:25:54.842Z,96.73
2023-05-22T11:28:23.435Z,89.13
2023-05-22T11:30:52.395Z,86.81
2023-05-22T11:33:19.895Z,82.89
2023-05-22T11:35:49.370Z,79.73
2023-05-22T11:38:16.864Z,78.44
2023-05-22T11:40:44.718Z,84.50
2023-05-22T11:43:12.099Z,80.68
2023-05-22T11:45:39.862Z,79.50
2023-05-22T11:48:08.923Z,79.00
2023-05-22T11:50:42.224Z,80.71
2023-05-22T11:53:10.885Z,81.35
2023-05-22T11:55:38.622Z,79.14
2023-05-22T11:58:06.365Z,80.80
2023-05-22T12:00:33.812Z,86.89
2023-05-22T12:03:01.367Z,82.94
2023-05-22T12:05:32.167Z,82.20
2023-05-22T12:07:59.874Z,78.04
2023-05-22T12:10:27.385Z,75.44
2023-05-22T12:12:55.201Z,76.85
2023-05-22T12:15:24.845Z,76.98
2023-05-22T12:17:56.117Z,83.44
2023-05-22T12:20:29.509Z,76.70
2023-05-22T12:22:57.291Z,74.88
2023-05-22T12:25:24.842Z,73.60
2023-05-22T12:27:52.656Z,77.26
2023-05-22T12:30:20.062Z,77.71
2023-05-22T12:32:51.522Z,74.31
2023-05-22T12:35:19.797Z,69.81
2023-05-22T12:37:53.291Z,63.98
2023-05-22T12:40:21.128Z,61.95
2023-05-22T12:42:49.660Z,64.52
2023-05-22T12:45:18.004Z,66.09
2023-05-22T12:47:46.735Z,62.19
2023-05-22T12:50:14.893Z,59.10
2023-05-22T12:52:42.709Z,61.30
2023-05-22T12:55:10.729Z,61.95
2023-05-22T12:57:38.654Z,62.34
2023-05-22T13:00:07.316Z,64.07
2023-05-22T13:02:35.743Z,60.47
2023-05-22T13:05:03.500Z,60.62
2023-05-22T13:07:32.891Z,60.02
2023-05-22T13:10:00.759Z,56.20
2023-05-22T13:12:28.621Z,56.67
2023-05-22T13:14:56.085Z,58.45
2023-05-22T13:17:24.502Z,60.29
2023-05-22T13:19:52.685Z,55.08
2023-05-22T13:22:20.574Z,55.68
2023-05-22T13:24:48.578Z,58.88
2023-05-22T13:27:17.244Z,58.08
2023-05-22T13:29:45.795Z,54.47
2023-05-22T13:32:14.156Z,57.78
2023-05-22T13:34:41.956Z,56.80
2023-05-22T13:37:09.782Z,53.22
2023-05-22T13:39:40.054Z,52.29
2023-05-22T13:42:07.592Z,52.69
2023-05-22T13:44:35.410Z,55.95
2023-05-22T13:47:03.651Z,54.27
2023-05-22T13:49:31.586Z,51.72
2023-05-22T13:51:59.045Z,51.56
2023-05-22T13:54:27.032Z,48.78
2023-05-22T13:56:54.763Z,53.20
2023-05-22T13:59:22.084Z,53.42
2023-05-22T14:01:49.344Z,50.11
2023-05-22T14:04:17.061Z,51.76
2023-05-22T14:06:44.785Z,52.68
2023-05-22T14:09:12.185Z,52.38
2023-05-22T14:11:39.792Z,52.77
2023-05-22T14:14:07.226Z,50.04
2023-05-22T14:16:35.577Z,51.07
2023-05-22T14:19:03.056Z,51.30
2023-05-22T14:21:31.245Z,47.83
2023-05-22T14:23:58.664Z,50.41
2023-05-22T14:26:26.984Z,49.19
2023-05-22T14:28:54.748Z,49.97
2023-05-22T14:31:22.219Z,47.37
2023-05-22T14:33:49.721Z,47.61
2023-05-22T14:36:17.879Z,46.54
2023-05-22T14:38:46.693Z,45.57
2023-05-22T14:41:14.546Z,45.94
2023-05-22T14:43:42.831Z,48.09
2023-05-22T14:46:11.177Z,43.82
2023-05-22T14:48:39.550Z,45.10
2023-05-22T14:51:06.973Z,42.15
2023-05-22T14:53:34.914Z,35.89
2023-05-22T14:56:02.281Z,35.18
2023-05-22T14:58:29.560Z,32.19
2023-05-22T15:00:57.315Z,29.54
2023-05-22T15:03:24.688Z,29.16
2023-05-22T15:05:52.669Z,27.75
2023-05-22T15:08:20.056Z,25.73
2023-05-22T15:10:47.493Z,24.66
2023-05-22T15:13:15.682Z,26.25
2023-05-22T15:15:43.583Z,25.06
2023-05-22T15:18:12.209Z,25.48
2023-05-22T15:20:40.309Z,26.01
2023-05-22T15:23:07.798Z,25.96
2023-05-22T15:25:36.830Z,27.08
2023-05-22T15:28:06.498Z,28.46
2023-05-22T15:30:39.065Z,28.35
2023-05-22T15:33:07.150Z,25.84
2023-05-22T15:35:35.015Z,27.27
2023-05-22T15:38:03.131Z,26.79
2023-05-22T15:40:30.913Z,26.44
2023-05-22T15:43:01.752Z,25.96
2023-05-22T15:45:29.173Z,27.38
2023-05-22T15:47:57.108Z,25.54
2023-05-22T15:50:24.494Z,26.59
2023-05-22T15:52:51.866Z,25.87
2023-05-22T15:55:19.678Z,24.08
2023-05-22T15:57:47.091Z,26.55
2023-05-22T16:00:18.346Z,24.14
2023-05-22T16:02:46.459Z,22.53
2023-05-22T16:05:13.842Z,24.16
2023-05-22T16:07:42.671Z,24.68
2023-05-22T16:10:11.281Z,24.05
2023-05-22T16:12:41.165Z,25.88
2023-05-22T16:15:08.752Z,25.48
2023-05-22T16:17:38.122Z,24.72
2023-05-22T16:20:06.842Z,26.26
2023-05-22T16:22:47.126Z,28.04
2023-05-22T16:25:16.974Z,32.23
2023-05-22T16:27:45.018Z,34.79
2023-05-22T16:30:16.466Z,34.77
2023-05-22T16:32:48.286Z,31.74
2023-05-22T16:35:16.893Z,33.18
2023-05-22T16:37:45.157Z,32.80
2023-05-22T16:40:12.668Z,32.70
2023-05-22T16:42:40.683Z,31.82
2023-05-22T16:45:08.769Z,30.64
2023-05-22T16:47:36.598Z,30.08
2023-05-22T16:50:04.846Z,30.44
2023-05-22T16:52:33.481Z,30.99
2023-05-22T16:55:01.278Z,31.13
2023-05-22T16:57:29.123Z,30.59
2023-05-22T16:59:58.041Z,31.48
2023-05-22T17:02:26.475Z,28.44
2023-05-22T17:04:54.600Z,29.56
2023-05-22T17:07:22.373Z,28.33
2023-05-22T17:09:50.730Z,29.72
2023-05-22T17:12:18.593Z,31.17
2023-05-22T17:14:46.374Z,30.21
2023-05-22T17:17:14.499Z,29.46
2023-05-22T17:19:41.949Z,27.78
2023-05-22T17:22:10.354Z,28.02
2023-05-22T17:24:38.410Z,29.76
2023-05-22T17:27:06.665Z,30.18
2023-05-22T17:29:34.112Z,33.16
2023-05-22T17:32:01.917Z,37.11
2023-05-22T17:34:29.282Z,37.38
2023-05-22T17:36:57.518Z,39.25
2023-05-22T17:39:25.266Z,40.68
2023-05-22T17:41:53.150Z,40.95
2023-05-22T17:44:20.727Z,42.17
2023-05-22T17:46:49.376Z,42.32
2023-05-22T17:49:17.445Z,41.72
2023-05-22T17:51:44.880Z,41.98
2023-05-22T17:54:13.024Z,44.50
2023-05-22T17:56:41.453Z,43.68
2023-05-22T17:59:08.741Z,46.81
2023-05-22T18:01:36.112Z,46.10
2023-05-22T18:04:04.798Z,46.72
2023-05-22T18:06:32.935Z,48.59
2023-05-22T18:09:04.311Z,50.10
2023-05-22T18:11:31.739Z,51.18
2023-05-22T18:13:59.563Z,51.48
2023-05-22T18:16:27.359Z,52.44
2023-05-22T18:18:54.793Z,54.13
2023-05-22T18:21:22.707Z,54.85
2023-05-22T18:23:50.902Z,55.19
2023-05-22T18:26:18.291Z,55.62
2023-05-22T18:28:48.280Z,56.07
2023-05-22T18:31:16.657Z,60.29
2023-05-22T18:33:45.091Z,61.40
2023-05-22T18:36:13.034Z,64.57
2023-05-22T18:38:40.405Z,65.94
2023-05-22T18:41:07.860Z,69.27
2023-05-22T18:43:35.809Z,72.10
2023-05-22T18:46:04.518Z,72.05
2023-05-22T18:48:33.152Z,74.64
2023-05-22T18:51:01.408Z,80.45
2023-05-22T18:53:28.975Z,82.68
2023-05-22T18:55:56.409Z,84.97
2023-05-22T18:58:24.537Z,85.27
2023-05-22T19:00:55.366Z,91.57
2023-05-22T19:03:23.776Z,90.43
2023-05-22T19:05:51.491Z,91.33
2023-05-22T19:08:20.150Z,86.71
2023-05-22T19:10:47.850Z,87.36
2023-05-22T19:13:15.777Z,93.65
2023-05-22T19:15:44.685Z,100.00
2023-05-22T19:18:12.204Z,100.00
2023-05-22T19:20:41.149Z,100.00
2023-05-22T19:23:11.359Z,100.00
2023-05-22T19:25:39.458Z,100.00
2023-05-22T19:28:07.247Z,100.00
2023-05-22T19:30:35.346Z,100.00
2023-05-22T19:33:03.047Z,100.00
2023-05-22T19:35:32.005Z,100.00
2023-05-22T19:37:59.938Z,100.00
2023-05-22T19:40:27.678Z,100.00
2023-05-22T19:42:55.770Z,100.00
2023-05-22T19:45:25.791Z,100.00
2023-05-22T19:47:53.952Z,100.00
2023-05-22T19:50:21.606Z,100.00
2023-05-22T19:52:49.707Z,100.00
2023-05-22T19:55:17.436Z,100.00
2023-05-22T19:57:45.527Z,100.00
2023-05-22T20:00:13.840Z,100.00
2023-05-22T20:02:41.868Z,100.00
2023-05-22T20:05:13.061Z,100.00
2023-05-22T20:07:44.492Z,100.00
2023-05-22T20:10:12.040Z,100.00
2023-05-22T20:12:40.252Z,100.00
2023-05-22T20:15:08.263Z,100.00
2023-05-22T20:17:41.790Z,100.00
2023-05-22T20:20:10.206Z,100.00
2023-05-22T20:22:38.526Z,100.00
2023-05-22T20:25:07.148Z,100.00
2023-05-22T20:27:35.131Z,100.00
2023-05-22T20:30:03.621Z,100.00
2023-05-22T20:32:32.384Z,100.00
2023-05-22T20:35:00.906Z,100.00
2023-05-22T20:37:29.554Z,100.00
2023-05-22T20:40:03.651Z,100.00
2023-05-22T20:42:31.841Z,100.00
2023-05-22T20:44:59.148Z,100.00
2023-05-22T20:47:26.501Z,100.00
2023-05-22T20:49:53.811Z,100.00
2023-05-22T20:52:22.334Z,100.00
2023-05-22T20:54:49.775Z,100.00
2023-05-22T20:57:17.137Z,100.00
2023-05-22T20:59:44.699Z,100.00
2023-05-22T21:02:12.062Z,100.00
2023-05-22T21:04:39.455Z,100.00
2023-05-22T21:07:08.056Z,100.00
2023-05-22T21:09:35.473Z,100.00
2023-05-22T21:12:03.993Z,100.00
2023-05-22T21:14:31.353Z,100.00
2023-05-22T21:16:58.891Z,100.00
2023-05-22T21:19:26.272Z,100.00
2023-05-22T21:21:53.652Z,100.00
2023-05-22T21:24:21.871Z,100.00
2023-05-22T21:26:49.657Z,100.00
2023-05-22T21:29:17.590Z,100.00
2023-05-22T21:31:44.969Z,100.00
2023-05-22T21:34:12.745Z,100.00
2023-05-22T21:36:40.661Z,100.00
2023-05-22T21:39:08.035Z,100.00
2023-05-22T21:41:35.760Z,100.00
2023-05-22T21:44:03.537Z,100.00
2023-05-22T21:46:31.469Z,100.00
2023-05-22T21:48:59.828Z,100.00
2023-05-22T21:51:27.166Z,100.00
2023-05-22T21:53:54.730Z,100.00
2023-05-22T21:56:22.126Z,100.00
2023-05-22T21:58:49.481Z,100.00
2023-05-22T22:01:17.302Z,100.00
2023-05-22T22:03:44.821Z,100.00
2023-05-22T22:06:12.301Z,100.00
2023-05-22T22:08:40.152Z,100.00
2023-05-22T22:11:07.605Z,100.00
2023-05-22T22:13:35.977Z,100.00
2023-05-22T22:16:03.406Z,100.00
2023-05-22T22:18:34.350Z,100.00
2023-05-22T22:21:02.444Z,100.00
2023-05-22T22:23:29.942Z,100.00
2023-05-22T22:25:57.709Z,100.00
2023-05-22T22:28:25.122Z,100.00
2023-05-22T22:30:55.016Z,100.00
2023-05-22T22:33:22.840Z,100.00
2023-05-22T22:35:51.342Z,100.00
2023-05-22T22:38:18.754Z,100.00
2023-05-22T22:40:46.176Z,100.00
2023-05-22T22:43:13.486Z,100.00
2023-05-22T22:45:41.166Z,100.00
2023-05-22T22:48:08.700Z,100.00
2023-05-22T22:50:36.770Z,100.00
2023-05-22T22:53:05.067Z,100.00
2023-05-22T22:55:33.101Z,100.00
2023-05-22T22:58:01.933Z,100.00
2023-05-22T23:00:29.694Z,100.00
2023-05-22T23:02:57.550Z,100.00
2023-05-22T23:05:24.901Z,100.00
2023-05-22T23:07:52.280Z,100.00
2023-05-22T23:10:19.754Z,100.00
2023-05-22T23:12:48.671Z,100.00
2023-05-22T23:15:16.156Z,100.00
2023-05-22T23:17:43.565Z,100.00
2023-05-22T23:22:39.089Z,100.00
2023-05-22T23:25:07.444Z,100.00
2023-05-22T23:27:34.918Z,100.00
2023-05-22T23:30:06.286Z,100.00
2023-05-22T23:32:33.686Z,100.00
2023-05-22T23:35:01.608Z,100.00
2023-05-22T23:37:28.945Z,100.00
2023-05-22T23:39:56.611Z,100.00
2023-05-22T23:42:25.475Z,100.00
2023-05-22T23:44:53.237Z,100.00
2023-05-22T23:47:20.716Z,100.00
2023-05-22T23:49:48.505Z,100.00
2023-05-22T23:52:16.020Z,100.00
2023-05-22T23:54:43.378Z,100.00
2023-05-22T23:57:10.798Z,100.00
2023-05-22T23:59:39.040Z,100.00
